createdAt,value
2023-03-23T15:58:14.239Z,18.24
2023-03-23T16:00:43.742Z,17.62
2023-03-23T16:03:18.095Z,18.23
2023-03-23T16:05:45.925Z,17.94
2023-03-23T16:08:16.785Z,17.78
2023-03-23T16:10:44.530Z,17.83
2023-03-23T16:13:11.642Z,17.83
2023-03-23T16:15:38.603Z,17.90
2023-03-23T16:18:05.539Z,17.48
2023-03-23T16:20:33.178Z,17.38
2023-03-23T16:23:00.350Z,17.14
2023-03-23T16:25:27.172Z,17.03
2023-03-23T16:27:54.659Z,16.83
2023-03-23T16:30:25.947Z,16.65
2023-03-23T16:32:57.583Z,16.52
2023-03-23T16:35:24.399Z,16.55
2023-03-23T16:38:07.773Z,16.48
2023-03-23T16:40:37.008Z,16.49
2023-03-23T16:43:08.480Z,16.52
2023-03-23T16:45:35.731Z,16.39
2023-03-23T16:48:03.637Z,16.25
2023-03-23T16:50:31.460Z,16.19
2023-03-23T16:52:59.024Z,16.01
2023-03-23T16:55:27.662Z,15.97
2023-03-23T16:58:05.242Z,15.84
2023-03-23T17:00:41.812Z,15.66
2023-03-23T17:03:09.458Z,15.57
2023-03-23T17:05:37.486Z,15.40
2023-03-23T17:08:04.536Z,15.39
2023-03-23T17:10:33.002Z,15.29
2023-03-23T17:13:00.286Z,15.29
2023-03-23T17:15:26.886Z,15.33
2023-03-23T17:17:55.271Z,15.32
2023-03-23T17:20:23.426Z,15.32
2023-03-23T17:22:50.309Z,15.26
2023-03-23T17:25:17.031Z,15.12
2023-03-23T17:27:44.360Z,15.09
2023-03-23T17:30:11.974Z,15.06
2023-03-23T17:32:39.506Z,15.09
2023-03-23T17:35:07.673Z,15.02
2023-03-23T17:37:36.482Z,14.87
2023-03-23T17:40:07.672Z,14.82
2023-03-23T17:42:34.528Z,14.75
2023-03-23T17:45:01.097Z,14.65
2023-03-23T17:47:28.524Z,14.63
2023-03-23T17:49:55.357Z,14.40
2023-03-23T17:52:22.669Z,14.41
2023-03-23T17:54:49.300Z,14.36
2023-03-23T17:57:16.370Z,14.37
2023-03-23T17:59:43.152Z,14.29
2023-03-23T18:02:11.469Z,14.37
2023-03-23T18:04:38.025Z,14.43
2023-03-23T18:07:05.440Z,14.38
2023-03-23T18:09:32.107Z,14.32
2023-03-23T18:11:58.678Z,14.41
2023-03-23T18:14:25.451Z,14.25
2023-03-23T18:16:53.464Z,14.34
2023-03-23T18:19:20.237Z,14.33
2023-03-23T18:21:46.795Z,14.34
2023-03-23T18:24:13.889Z,14.20
2023-03-23T18:26:41.150Z,14.17
2023-03-23T18:29:07.797Z,14.06
2023-03-23T18:31:39.918Z,13.99
2023-03-23T18:34:07.050Z,14.08
2023-03-23T18:36:34.280Z,14.10
2023-03-23T18:39:00.906Z,14.09
2023-03-23T18:41:27.469Z,13.89
2023-03-23T18:43:56.283Z,13.98
2023-03-23T18:46:24.085Z,13.89
2023-03-23T18:48:50.730Z,13.96
2023-03-23T18:51:17.305Z,13.88
2023-03-23T18:53:43.836Z,13.86
2023-03-23T18:56:16.193Z,13.86
2023-03-23T18:58:44.146Z,14.06
2023-03-23T19:01:14.304Z,13.95
2023-03-23T19:03:41.436Z,13.89
2023-03-23T19:06:20.655Z,13.82
2023-03-23T19:08:48.464Z,13.71
2023-03-23T19:11:16.196Z,13.59
2023-03-23T19:13:53.922Z,13.58
2023-03-23T19:16:25.417Z,13.65
2023-03-23T19:18:52.206Z,13.74
2023-03-23T19:21:21.223Z,13.76
2023-03-23T19:23:51.773Z,13.67
2023-03-23T19:26:23.906Z,13.64
2023-03-23T19:31:23.849Z,13.53
2023-03-23T19:33:53.547Z,13.40
2023-03-23T19:36:22.069Z,13.41
2023-03-23T19:38:50.323Z,13.34
2023-03-23T19:41:21.902Z,13.26
2023-03-23T19:43:48.539Z,13.23
2023-03-23T19:46:15.439Z,13.21
2023-03-23T19:48:42.924Z,13.11
2023-03-23T19:51:11.955Z,13.11
2023-03-23T19:53:39.588Z,13.03
2023-03-23T19:56:12.737Z,12.90
2023-03-23T19:58:39.724Z,12.93
2023-03-23T20:01:07.470Z,12.80
2023-03-23T20:03:35.168Z,12.90
2023-03-23T20:06:02.978Z,12.89
2023-03-23T20:08:31.325Z,12.92
2023-03-23T20:11:07.510Z,12.89
2023-03-23T20:13:34.238Z,12.92
2023-03-23T20:16:01.155Z,12.88
2023-03-23T20:18:29.833Z,12.89
2023-03-23T20:21:04.537Z,12.86
2023-03-23T20:23:32.186Z,12.83
2023-03-23T20:26:04.824Z,12.86
2023-03-23T20:28:31.484Z,12.69
2023-03-23T20:31:26.716Z,12.70
2023-03-23T20:34:03.094Z,12.73
2023-03-23T20:36:34.975Z,12.68
2023-03-23T20:39:05.469Z,12.76
2023-03-23T20:41:35.893Z,12.75
2023-03-23T20:44:03.876Z,12.78
2023-03-23T20:46:33.554Z,12.76
2023-03-23T20:49:01.145Z,12.68
2023-03-23T20:51:27.767Z,12.73
2023-03-23T20:53:54.821Z,12.63
2023-03-23T20:56:21.520Z,12.56
2023-03-23T20:58:48.062Z,12.55
2023-03-23T21:01:15.323Z,12.58
2023-03-23T21:03:42.720Z,12.58
2023-03-23T21:06:10.814Z,12.53
2023-03-23T21:08:39.330Z,12.52
2023-03-23T21:11:10.237Z,12.51
2023-03-23T21:13:37.096Z,12.62
2023-03-23T21:16:04.210Z,12.62
2023-03-23T21:18:31.570Z,12.58
2023-03-23T21:21:00.267Z,12.61
2023-03-23T21:23:29.665Z,12.72
2023-03-23T21:26:01.783Z,12.68
2023-03-23T21:28:28.562Z,12.65
2023-03-23T21:30:59.172Z,12.63
2023-03-23T21:33:26.156Z,12.66
2023-03-23T21:35:52.708Z,12.69
2023-03-23T21:38:19.905Z,12.68
2023-03-23T21:40:47.017Z,12.73
2023-03-23T21:43:14.092Z,12.73
2023-03-23T21:45:42.392Z,12.73
2023-03-23T21:48:10.451Z,12.76
2023-03-23T21:50:38.965Z,12.82
2023-03-23T21:53:05.801Z,12.78
2023-03-23T21:55:34.260Z,12.79
2023-03-23T21:58:01.365Z,12.80
2023-03-23T22:00:28.478Z,12.68
2023-03-23T22:02:55.390Z,12.65
2023-03-23T22:05:22.811Z,12.69
2023-03-23T22:07:49.409Z,12.58
2023-03-23T22:10:16.196Z,12.56
2023-03-23T22:12:42.849Z,12.56
2023-03-23T22:15:13.708Z,12.56
2023-03-23T22:17:40.452Z,12.51
2023-03-23T22:20:13.606Z,12.35
2023-03-23T22:22:40.498Z,12.30
2023-03-23T22:25:08.081Z,12.27
2023-03-23T22:27:34.647Z,12.24
2023-03-23T22:30:01.220Z,12.21
2023-03-23T22:32:27.836Z,12.20
2023-03-23T22:34:54.897Z,12.16
2023-03-23T22:37:21.913Z,12.03
2023-03-23T22:39:48.526Z,11.95
2023-03-23T22:42:15.167Z,11.93
2023-03-23T22:44:41.899Z,11.95
2023-03-23T22:47:08.478Z,11.95
2023-03-23T22:49:35.492Z,11.90
2023-03-23T22:52:02.153Z,11.89
2023-03-23T22:54:28.888Z,11.94
